createdAt,value
2023-02-24T00:02:20.468Z,7.97
2023-02-24T00:04:52.099Z,7.82
2023-02-24T00:07:19.013Z,8.15
2023-02-24T00:09:46.610Z,7.76
2023-02-24T00:12:31.044Z,8.09
2023-02-24T00:14:58.010Z,8.31
2023-02-24T00:17:28.180Z,8.91
2023-02-24T00:19:56.901Z,8.80
2023-02-24T00:22:23.895Z,9.49
2023-02-24T00:24:50.851Z,8.63
2023-02-24T00:27:18.356Z,9.30
2023-02-24T00:29:47.807Z,9.44
2023-02-24T00:32:27.010Z,9.50
2023-02-24T00:34:54.541Z,9.17
2023-02-24T00:37:24.300Z,9.31
2023-02-24T00:39:58.813Z,8.92
2023-02-24T00:42:26.011Z,9.19
2023-02-24T00:44:54.494Z,9.09
2023-02-24T00:47:28.728Z,9.41
2023-02-24T00:49:55.752Z,9.07
2023-02-24T00:52:37.119Z,8.92
2023-02-24T00:55:14.499Z,9.17
2023-02-24T00:57:42.067Z,8.43
2023-02-24T01:00:17.037Z,9.61
2023-02-24T01:02:48.269Z,9.64
2023-02-24T01:05:16.514Z,9.27
2023-02-24T01:07:43.900Z,9.46
2023-02-24T01:10:14.927Z,9.36
2023-02-24T01:12:59.566Z,9.69
2023-02-24T01:15:27.121Z,9.74
2023-02-24T01:17:56.485Z,9.75
2023-02-24T01:20:24.122Z,9.43
2023-02-24T01:22:54.808Z,9.53
2023-02-24T01:25:22.936Z,9.01
2023-02-24T01:27:50.982Z,9.48
2023-02-24T01:30:25.210Z,9.68
2023-02-24T01:32:52.316Z,9.24
2023-02-24T01:35:22.163Z,9.61
2023-02-24T01:37:49.628Z,9.57
2023-02-24T01:40:21.641Z,9.56
2023-02-24T01:42:49.814Z,9.80
2023-02-24T01:45:20.099Z,9.82
2023-02-24T01:48:01.971Z,9.41
2023-02-24T01:50:29.379Z,9.13
2023-02-24T01:52:59.302Z,9.23
2023-02-24T01:55:31.901Z,9.55
2023-02-24T01:58:01.152Z,9.45
2023-02-24T02:00:39.475Z,9.10
2023-02-24T02:03:13.597Z,8.97
2023-02-24T02:05:41.584Z,8.71
2023-02-24T02:08:09.535Z,9.03
2023-02-24T02:10:39.559Z,9.03
2023-02-24T02:13:07.039Z,8.88
2023-02-24T02:15:40.376Z,8.56
2023-02-24T02:18:14.765Z,9.19
2023-02-24T02:20:44.499Z,8.97
2023-02-24T02:23:24.066Z,9.17
2023-02-24T02:26:10.246Z,9.15
2023-02-24T02:28:37.219Z,9.10
2023-02-24T02:31:17.837Z,8.58
2023-02-24T02:33:55.508Z,9.13
2023-02-24T02:36:26.124Z,9.34
2023-02-24T02:38:58.894Z,8.85
2023-02-24T02:42:05.168Z,8.85
2023-02-24T02:44:39.961Z,9.01
2023-02-24T02:47:18.935Z,9.50
2023-02-24T02:49:50.150Z,9.31
2023-02-24T02:52:37.009Z,9.44
2023-02-24T02:55:08.576Z,9.11
2023-02-24T02:57:38.315Z,9.30
2023-02-24T03:00:42.467Z,9.09
2023-02-24T03:03:13.008Z,8.80
2023-02-24T03:05:47.304Z,9.11
2023-02-24T03:08:16.212Z,9.27
2023-02-24T03:10:45.713Z,9.51
2023-02-24T03:13:13.935Z,9.16
2023-02-24T03:15:45.141Z,8.82
2023-02-24T03:18:15.615Z,8.84
2023-02-24T03:20:49.323Z,8.94
2023-02-24T03:23:18.394Z,8.90
2023-02-24T03:25:52.709Z,8.73
2023-02-24T03:28:26.782Z,8.75
2023-02-24T03:31:00.661Z,9.03
2023-02-24T03:33:51.554Z,8.24
2023-02-24T03:36:18.977Z,8.82
2023-02-24T03:38:50.152Z,8.19
2023-02-24T03:41:17.781Z,8.24
2023-02-24T03:43:58.202Z,9.11
2023-02-24T03:46:25.881Z,7.67
2023-02-24T03:48:55.794Z,8.33
2023-02-24T03:51:31.989Z,8.23
2023-02-24T03:54:02.229Z,8.83
2023-02-24T03:56:58.229Z,8.56
2023-02-24T03:59:40.465Z,8.77
2023-02-24T04:02:14.701Z,8.74
2023-02-24T04:04:48.182Z,8.67
2023-02-24T04:07:15.082Z,9.23
2023-02-24T04:09:57.501Z,8.16
2023-02-24T04:12:30.919Z,8.40
2023-02-24T04:15:00.937Z,8.69
2023-02-24T04:17:31.930Z,8.51
2023-02-24T04:20:01.704Z,8.78
2023-02-24T04:22:30.078Z,7.96
2023-02-24T04:25:13.898Z,8.30
2023-02-24T04:27:41.739Z,8.64
2023-02-24T04:30:12.437Z,9.02
2023-02-24T04:32:43.009Z,9.16
2023-02-24T04:35:13.376Z,8.36
2023-02-24T04:37:40.895Z,7.93
2023-02-24T04:40:11.275Z,8.28
2023-02-24T04:42:47.174Z,7.98
2023-02-24T04:45:16.903Z,9.00
2023-02-24T04:47:46.363Z,8.65
2023-02-24T04:50:23.283Z,8.97
2023-02-24T04:52:51.299Z,8.99
2023-02-24T04:55:19.827Z,8.97
2023-02-24T04:57:50.270Z,8.68
2023-02-24T05:00:25.689Z,7.82
2023-02-24T05:02:54.526Z,8.17
2023-02-24T05:05:25.812Z,8.18
2023-02-24T05:07:53.957Z,8.54
2023-02-24T05:10:22.854Z,8.21
2023-02-24T05:12:50.189Z,8.30
2023-02-24T05:15:33.416Z,8.22
2023-02-24T05:18:01.254Z,8.33
2023-02-24T05:20:47.718Z,8.26
2023-02-24T05:23:17.117Z,8.47
2023-02-24T05:25:45.532Z,8.24
2023-02-24T05:28:19.081Z,7.86
2023-02-24T05:30:46.725Z,8.02
2023-02-24T05:33:14.335Z,8.11
2023-02-24T05:35:46.452Z,8.20
2023-02-24T05:38:14.261Z,8.07
2023-02-24T05:40:46.881Z,8.06
2023-02-24T05:43:19.507Z,8.65
2023-02-24T05:45:48.505Z,7.66
2023-02-24T05:48:17.109Z,8.19
2023-02-24T05:51:05.148Z,7.75
2023-02-24T05:53:32.413Z,8.10
2023-02-24T05:56:06.961Z,7.94
2023-02-24T05:58:34.297Z,7.64
2023-02-24T06:01:07.201Z,8.10
2023-02-24T06:03:35.817Z,8.02
2023-02-24T06:06:10.446Z,8.36
2023-02-24T06:08:42.789Z,8.15
2023-02-24T06:11:10.987Z,7.61
2023-02-24T06:13:48.069Z,7.54
2023-02-24T06:16:19.102Z,7.46
2023-02-24T06:18:50.439Z,7.38
2023-02-24T06:21:18.116Z,8.20
2023-02-24T06:23:45.808Z,8.28
2023-02-24T06:26:19.709Z,7.66
2023-02-24T06:28:49.394Z,7.40
2023-02-24T06:31:17.955Z,7.28
2023-02-24T06:33:45.716Z,7.54
2023-02-24T06:36:17.086Z,7.73
2023-02-24T06:38:44.395Z,7.22
2023-02-24T06:41:30.152Z,7.35
2023-02-24T06:43:57.813Z,8.06
2023-02-24T06:46:25.691Z,7.29
2023-02-24T06:48:53.115Z,7.39
2023-02-24T06:51:20.929Z,7.18
2023-02-24T06:53:49.576Z,7.70
2023-02-24T06:56:20.070Z,7.66
2023-02-24T06:58:49.017Z,7.76
2023-02-24T07:01:18.425Z,7.71
2023-02-24T07:04:05.139Z,7.56
2023-02-24T07:06:34.534Z,8.11
2023-02-24T07:09:09.165Z,7.64
2023-02-24T07:11:37.740Z,7.49
2023-02-24T07:14:08.346Z,8.09
2023-02-24T07:16:36.172Z,8.02
2023-02-24T07:19:11.300Z,8.21
2023-02-24T07:21:43.510Z,8.13
2023-02-24T07:24:13.706Z,7.60
2023-02-24T07:26:43.003Z,7.49
2023-02-24T07:29:12.073Z,7.49
2023-02-24T07:31:40.827Z,7.70
2023-02-24T07:34:07.786Z,7.39
2023-02-24T07:36:49.449Z,7.25
2023-02-24T07:39:17.313Z,7.38
2023-02-24T07:41:49.831Z,6.85
2023-02-24T07:44:19.975Z,6.90
2023-02-24T07:46:49.224Z,6.95
2023-02-24T07:49:20.278Z,7.10
2023-02-24T07:51:54.072Z,7.22
2023-02-24T07:54:21.675Z,7.47
2023-02-24T07:56:57.158Z,6.89
2023-02-24T07:59:27.091Z,7.42
2023-02-24T08:01:56.215Z,7.63
2023-02-24T08:05:03.121Z,7.23
2023-02-24T08:07:31.130Z,7.11
2023-02-24T08:10:10.881Z,7.38
2023-02-24T08:12:42.749Z,7.34
2023-02-24T08:15:17.711Z,7.20
2023-02-24T08:17:47.633Z,7.56
2023-02-24T08:20:15.685Z,7.43
2023-02-24T08:22:52.381Z,7.39
2023-02-24T08:25:25.412Z,7.37
2023-02-24T08:28:08.874Z,7.33
2023-02-24T08:30:40.681Z,6.98
2023-02-24T08:33:22.525Z,7.04
2023-02-24T08:35:53.482Z,7.38
2023-02-24T08:38:40.304Z,6.90
2023-02-24T08:41:11.777Z,6.61
2023-02-24T08:43:39.930Z,7.15
2023-02-24T08:46:18.757Z,7.07
2023-02-24T08:48:48.009Z,7.09
2023-02-24T08:51:18.215Z,6.73
2023-02-24T08:53:47.287Z,7.31
2023-02-24T08:56:15.321Z,7.75
2023-02-24T08:58:51.820Z,6.69
2023-02-24T09:01:37.410Z,7.16
2023-02-24T09:04:06.689Z,7.10
2023-02-24T09:07:11.825Z,7.56
2023-02-24T09:09:42.578Z,6.80
2023-02-24T09:12:24.825Z,6.99
2023-02-24T09:14:56.000Z,7.36
2023-02-24T09:17:50.471Z,7.24
2023-02-24T09:20:28.543Z,7.35
2023-02-24T09:22:58.099Z,7.27
2023-02-24T09:25:41.126Z,7.28
2023-02-24T09:28:17.770Z,7.34
2023-02-24T09:31:07.841Z,7.57
2023-02-24T09:33:39.902Z,7.40
2023-02-24T09:36:30.421Z,7.66
2023-02-24T09:39:01.328Z,7.86
2023-02-24T09:41:57.052Z,7.54
2023-02-24T09:44:37.356Z,7.38
2023-02-24T09:47:09.687Z,7.71
2023-02-24T09:49:46.791Z,6.93
2023-02-24T09:52:18.677Z,7.06
2023-02-24T09:55:05.966Z,7.48
2023-02-24T09:57:57.472Z,8.03
2023-02-24T10:00:36.745Z,6.95
2023-02-24T10:03:19.962Z,7.69
2023-02-24T10:06:01.169Z,7.16
2023-02-24T10:08:33.332Z,7.31
2023-02-24T10:11:07.385Z,7.68
2023-02-24T10:13:40.323Z,7.65
2023-02-24T10:16:10.801Z,7.89
2023-02-24T10:18:43.695Z,7.49
2023-02-24T10:21:16.237Z,7.74
2023-02-24T10:23:45.718Z,7.64
2023-02-24T10:26:33.610Z,7.90
2023-02-24T10:29:09.212Z,8.37
2023-02-24T10:31:46.594Z,8.05
2023-02-24T10:34:26.602Z,7.60
2023-02-24T10:36:53.932Z,8.34
2023-02-24T10:39:33.543Z,7.54
2023-02-24T10:42:22.664Z,8.33
2023-02-24T10:45:01.379Z,8.05
2023-02-24T10:47:33.889Z,8.53
2023-02-24T10:50:02.050Z,7.66
2023-02-24T10:52:51.445Z,8.29
2023-02-24T10:55:43.121Z,8.52
2023-02-24T10:58:28.197Z,8.23
2023-02-24T11:01:07.848Z,8.90
2023-02-24T11:04:12.246Z,8.32
2023-02-24T11:06:53.676Z,8.20
2023-02-24T11:09:36.179Z,9.09
2023-02-24T11:12:32.908Z,7.99
2023-02-24T11:15:37.220Z,8.68
2023-02-24T11:18:07.085Z,8.50
2023-02-24T11:20:56.002Z,8.65
2023-02-24T11:23:25.307Z,8.56
2023-02-24T11:25:54.633Z,8.62
2023-02-24T11:28:58.692Z,8.50
2023-02-24T11:31:36.690Z,9.19
2023-02-24T11:34:15.700Z,8.37
2023-02-24T11:36:54.906Z,9.22
2023-02-24T11:39:34.448Z,8.62
2023-02-24T11:42:05.434Z,8.80
2023-02-24T11:45:07.204Z,8.85
2023-02-24T11:47:43.475Z,9.81
2023-02-24T11:50:28.606Z,9.39
2023-02-24T11:53:07.905Z,9.88
2023-02-24T11:55:39.524Z,8.78
2023-02-24T12:02:07.416Z,9.61
2023-02-24T12:04:34.608Z,9.86
2023-02-24T12:07:10.270Z,9.10
2023-02-24T12:09:42.664Z,9.58
2023-02-24T12:12:14.484Z,9.41
2023-02-24T12:14:46.306Z,9.65
2023-02-24T12:17:18.822Z,9.43
2023-02-24T12:19:52.317Z,9.35
2023-02-24T12:22:20.780Z,9.71
2023-02-24T12:24:51.832Z,9.73
2023-02-24T12:27:40.676Z,10.17
2023-02-24T12:30:34.768Z,10.51
2023-02-24T12:33:16.455Z,10.79
2023-02-24T12:36:03.358Z,9.40
2023-02-24T12:38:42.457Z,9.73
2023-02-24T12:41:21.646Z,10.03
2023-02-24T12:43:49.137Z,9.88
2023-02-24T12:46:31.340Z,10.04
2023-02-24T12:49:12.440Z,10.20
2023-02-24T12:51:46.553Z,9.76
2023-02-24T12:54:16.949Z,10.16
2023-02-24T12:56:53.126Z,9.68
2023-02-24T12:59:34.468Z,10.48
2023-02-24T13:02:12.389Z,10.94
2023-02-24T13:04:40.554Z,10.47
2023-02-24T13:07:50.622Z,10.98
2023-02-24T13:10:38.547Z,11.57
2023-02-24T13:13:20.373Z,11.83
2023-02-24T13:16:07.223Z,11.95
2023-02-24T13:18:40.163Z,11.47
2023-02-24T13:21:09.618Z,11.24
2023-02-24T13:23:41.037Z,11.91
2023-02-24T13:26:10.594Z,11.81
2023-02-24T13:28:38.817Z,11.20
2023-02-24T13:31:08.828Z,11.40
2023-02-24T13:34:14.684Z,10.34
2023-02-24T13:36:51.119Z,10.97
2023-02-24T13:39:38.502Z,11.78
2023-02-24T13:42:21.897Z,11.79
2023-02-24T13:45:09.655Z,11.55
2023-02-24T13:48:07.007Z,11.52
2023-02-24T13:51:03.599Z,11.74
2023-02-24T13:53:37.021Z,11.01
2023-02-24T13:56:11.028Z,11.27
2023-02-24T13:59:01.272Z,10.23
2023-02-24T14:01:30.596Z,9.85
2023-02-24T14:04:03.656Z,10.68
2023-02-24T14:06:38.626Z,10.63
2023-02-24T14:09:06.783Z,9.92
2023-02-24T14:11:36.492Z,10.93
2023-02-24T14:14:04.327Z,10.94
2023-02-24T14:16:40.118Z,11.36
2023-02-24T14:19:12.672Z,11.14
2023-02-24T14:21:47.066Z,11.69
2023-02-24T14:24:15.418Z,11.05
2023-02-24T14:26:46.504Z,11.16
2023-02-24T14:29:15.193Z,10.24
2023-02-24T14:31:42.904Z,10.19
2023-02-24T14:34:16.418Z,10.79
2023-02-24T14:36:45.688Z,10.74
2023-02-24T14:39:20.027Z,11.04
2023-02-24T14:41:48.164Z,11.18
2023-02-24T14:44:19.386Z,11.32
2023-02-24T14:46:56.861Z,11.09
2023-02-24T14:49:26.100Z,10.74
2023-02-24T14:52:18.254Z,11.07
2023-02-24T14:54:52.211Z,10.56
2023-02-24T14:57:22.816Z,11.45
2023-02-24T14:59:53.150Z,11.32
2023-02-24T15:02:24.693Z,10.48
2023-02-24T15:04:54.209Z,11.52
2023-02-24T15:07:29.156Z,10.85
2023-02-24T15:09:57.101Z,10.18
2023-02-24T15:12:29.326Z,10.47
2023-02-24T15:15:08.340Z,10.50
2023-02-24T15:17:40.381Z,10.64
2023-02-24T15:20:29.586Z,10.48
2023-02-24T15:22:56.458Z,10.12
2023-02-24T15:25:43.959Z,10.84
2023-02-24T15:28:39.654Z,10.56
2023-02-24T15:31:18.014Z,10.19
2023-02-24T15:33:46.248Z,10.01
2023-02-24T15:36:19.096Z,9.28
2023-02-24T15:38:47.123Z,8.94
2023-02-24T15:41:15.269Z,8.99
2023-02-24T15:43:56.591Z,8.46
2023-02-24T15:46:26.738Z,9.27
2023-02-24T15:48:54.733Z,10.34
2023-02-24T15:51:25.659Z,10.43
2023-02-24T15:53:52.932Z,10.24
2023-02-24T15:56:20.808Z,9.81
2023-02-24T15:58:47.849Z,10.21
2023-02-24T16:01:27.778Z,10.01
2023-02-24T16:03:55.238Z,9.93
2023-02-24T16:06:30.835Z,9.93
2023-02-24T16:08:58.512Z,10.23
2023-02-24T16:11:29.066Z,10.72
2023-02-24T16:13:59.880Z,10.44
2023-02-24T16:16:27.747Z,10.77
2023-02-24T16:18:54.785Z,11.03
2023-02-24T16:21:23.263Z,10.99
2023-02-24T16:23:51.272Z,10.00
2023-02-24T16:26:21.254Z,11.23
2023-02-24T16:28:52.191Z,10.24
2023-02-24T16:31:19.825Z,9.75
2023-02-24T16:33:54.818Z,10.51
2023-02-24T16:36:23.871Z,9.84
2023-02-24T16:39:05.180Z,9.43
2023-02-24T16:41:32.253Z,9.56
2023-02-24T16:44:29.122Z,9.08
2023-02-24T16:46:55.742Z,9.50
2023-02-24T16:49:22.776Z,9.44
2023-02-24T16:51:51.531Z,9.11
2023-02-24T16:54:22.060Z,10.14
2023-02-24T16:56:49.799Z,9.92
2023-02-24T16:59:17.835Z,9.77
2023-02-24T17:01:45.370Z,9.18
2023-02-24T17:04:14.546Z,8.78
2023-02-24T17:06:46.368Z,8.75
2023-02-24T17:09:15.773Z,9.42
2023-02-24T17:11:43.805Z,8.91
2023-02-24T17:14:17.616Z,8.34
2023-02-24T17:16:45.058Z,8.68
2023-02-24T17:19:12.429Z,8.36
2023-02-24T17:21:43.118Z,8.33
2023-02-24T17:24:17.203Z,8.80
2023-02-24T17:26:44.739Z,8.82
2023-02-24T17:29:18.819Z,8.44
2023-02-24T17:31:46.594Z,8.43
2023-02-24T17:34:14.478Z,8.80
2023-02-24T17:36:42.189Z,8.50
2023-02-24T17:39:09.067Z,8.46
2023-02-24T17:41:36.402Z,8.95
2023-02-24T17:44:04.359Z,9.44
2023-02-24T17:46:32.476Z,9.16
2023-02-24T17:49:00.516Z,9.94
2023-02-24T17:51:41.618Z,10.00
2023-02-24T17:54:08.817Z,9.47
2023-02-24T17:56:36.895Z,8.76
2023-02-24T17:59:04.204Z,9.31
2023-02-24T18:01:33.670Z,9.15
2023-02-24T18:04:01.129Z,8.71
2023-02-24T18:06:28.575Z,8.38
2023-02-24T18:08:56.685Z,8.24
2023-02-24T18:11:24.166Z,8.79
2023-02-24T18:13:55.309Z,8.72
2023-02-24T18:16:23.313Z,8.63
2023-02-24T18:18:50.843Z,9.09
2023-02-24T18:21:18.009Z,9.03
2023-02-24T18:23:45.081Z,7.77
2023-02-24T18:26:20.973Z,8.50
2023-02-24T18:28:52.200Z,7.99
2023-02-24T18:31:20.676Z,8.21
2023-02-24T18:33:48.094Z,8.29
2023-02-24T18:36:17.743Z,8.67
2023-02-24T18:38:45.905Z,8.46
2023-02-24T18:41:18.752Z,8.54
2023-02-24T18:43:51.426Z,8.31
2023-02-24T18:46:21.443Z,8.28
2023-02-24T18:48:50.354Z,8.39
2023-02-24T18:51:20.096Z,8.19
2023-02-24T18:53:47.479Z,7.63
2023-02-24T18:56:23.544Z,8.01
2023-02-24T18:58:52.614Z,7.78
2023-02-24T19:01:22.677Z,8.41
2023-02-24T19:03:50.874Z,8.17
2023-02-24T19:06:21.947Z,7.90
2023-02-24T19:08:55.131Z,8.12
2023-02-24T19:11:21.837Z,7.46
2023-02-24T19:13:48.569Z,7.88
2023-02-24T19:16:54.760Z,7.44
2023-02-24T19:19:22.969Z,8.22
2023-02-24T19:21:52.656Z,8.15
2023-02-24T19:24:20.904Z,7.92
2023-02-24T19:26:48.623Z,8.00
2023-02-24T19:29:17.357Z,8.16
2023-02-24T19:31:46.161Z,8.36
2023-02-24T19:34:19.360Z,8.22
2023-02-24T19:36:46.570Z,8.39
2023-02-24T19:39:14.958Z,8.01
2023-02-24T19:41:57.455Z,8.06
2023-02-24T19:44:25.296Z,8.13
2023-02-24T19:47:05.008Z,8.37
2023-02-24T19:49:31.806Z,7.89
2023-02-24T19:52:01.418Z,7.76
2023-02-24T19:54:29.179Z,8.70
2023-02-24T19:56:58.068Z,8.69
2023-02-24T19:59:27.170Z,8.33
2023-02-24T20:02:05.919Z,8.20
2023-02-24T20:04:33.144Z,8.54
2023-02-24T20:07:01.218Z,8.68
2023-02-24T20:09:28.660Z,7.90
2023-02-24T20:11:59.437Z,7.96
2023-02-24T20:14:47.327Z,7.65
2023-02-24T20:17:15.314Z,8.15
2023-02-24T20:19:43.983Z,8.28
2023-02-24T20:22:11.021Z,7.67
2023-02-24T20:24:45.365Z,7.82
2023-02-24T20:27:12.917Z,8.00
2023-02-24T20:29:41.371Z,8.12
2023-02-24T20:32:08.676Z,8.18
2023-02-24T20:34:37.148Z,8.27
2023-02-24T20:37:22.782Z,8.34
2023-02-24T20:39:52.000Z,7.99
2023-02-24T20:42:27.327Z,7.88
2023-02-24T20:44:54.579Z,7.65
2023-02-24T20:47:23.890Z,8.03
2023-02-24T20:49:51.676Z,7.38
2023-02-24T20:52:26.066Z,7.53
2023-02-24T20:54:53.095Z,7.74
2023-02-24T20:57:33.521Z,7.20
2023-02-24T21:00:08.889Z,7.49
2023-02-24T21:02:37.408Z,7.68
2023-02-24T21:05:05.494Z,7.51
2023-02-24T21:07:32.875Z,7.58
2023-02-24T21:10:02.715Z,7.66
2023-02-24T21:12:29.624Z,6.94
2023-02-24T21:14:58.192Z,7.37
2023-02-24T21:17:25.394Z,7.23
2023-02-24T21:19:52.807Z,7.00
2023-02-24T21:22:31.404Z,7.75
2023-02-24T21:24:59.962Z,7.23
2023-02-24T21:27:29.292Z,7.64
2023-02-24T21:29:56.307Z,7.54
2023-02-24T21:32:23.805Z,7.45
2023-02-24T21:34:55.177Z,7.20
2023-02-24T21:37:22.562Z,7.61
2023-02-24T21:39:49.718Z,7.53
2023-02-24T21:42:30.370Z,7.85
2023-02-24T21:45:02.570Z,7.36
2023-02-24T21:47:33.149Z,7.00
2023-02-24T21:50:02.719Z,7.63
2023-02-24T21:52:30.386Z,7.09
2023-02-24T21:54:58.318Z,6.63
2023-02-24T21:57:25.505Z,6.65
2023-02-24T21:59:52.975Z,6.79
2023-02-24T22:02:21.036Z,7.23
2023-02-24T22:04:50.022Z,6.58
2023-02-24T22:07:17.548Z,7.25
2023-02-24T22:09:45.132Z,7.27
2023-02-24T22:12:12.525Z,7.06
2023-02-24T22:14:40.108Z,7.17
2023-02-24T22:17:07.734Z,7.03
2023-02-24T22:19:36.852Z,7.24
2023-02-24T22:22:04.164Z,6.67
2023-02-24T22:24:33.053Z,6.71
2023-02-24T22:27:03.069Z,6.65
2023-02-24T22:29:31.512Z,6.64
2023-02-24T22:31:59.281Z,6.70
2023-02-24T22:34:27.083Z,6.67
2023-02-24T22:36:56.648Z,6.38
2023-02-24T22:39:23.692Z,7.11
2023-02-24T22:41:51.739Z,7.02
2023-02-24T22:44:19.670Z,6.68
2023-02-24T22:46:47.739Z,7.49
2023-02-24T22:49:15.394Z,7.33
2023-02-24T22:51:42.629Z,6.87
2023-02-24T22:54:10.179Z,7.03
2023-02-24T22:56:38.196Z,6.46
2023-02-24T22:59:11.888Z,6.97
2023-02-24T23:01:39.888Z,6.55
2023-02-24T23:04:08.850Z,6.04
2023-02-24T23:06:41.947Z,6.20
2023-02-24T23:09:12.337Z,7.03
2023-02-24T23:11:43.568Z,6.53
2023-02-24T23:14:14.309Z,6.82
2023-02-24T23:16:42.470Z,6.81
2023-02-24T23:19:13.521Z,6.56
2023-02-24T23:21:41.701Z,6.23
2023-02-24T23:24:09.409Z,6.95
2023-02-24T23:26:42.669Z,6.69
2023-02-24T23:29:10.791Z,6.79
2023-02-24T23:31:41.263Z,6.32
2023-02-24T23:34:09.135Z,6.31
2023-02-24T23:36:37.812Z,6.62
2023-02-24T23:39:05.254Z,6.43
2023-02-24T23:41:37.001Z,5.96
2023-02-24T23:44:05.849Z,6.61
2023-02-24T23:46:33.717Z,6.53
2023-02-24T23:49:09.097Z,6.02
2023-02-24T23:51:47.457Z,6.49
2023-02-24T23:54:15.923Z,6.41
2023-02-24T23:56:43.013Z,6.57
2023-02-24T23:59:18.576Z,6.10
